Time;durP1;ratioP1;P1;durP2;ratioP2;P2;SDS_P1;SDS_P2;PMS_P1;PMS_P2;Temp;Humidity;BMP_temperature;BMP_pressure;BME280_temperature;BME280_humidity;BME280_pressure;Samples;Min_cycle;Max_cycle;Signal;HPM_P1;HPM_P2
2022/05/26 00:01:47;;;;;;;1.38;1.20;;;16.30;51.20;;;16.52;45.13;98055.03;5008118;28;20054;-39
2022/05/26 00:04:16;;;;;;;2.38;1.10;;;16.30;51.90;;;16.50;45.10;98062.47;5007415;28;20069;-39
2022/05/26 00:06:44;;;;;;;1.83;0.98;;;16.20;51.60;;;16.52;45.08;98073.84;5008021;28;20470;-39
2022/05/26 00:09:12;;;;;;;2.60;1.02;;;16.30;51.80;;;16.52;45.11;98065.78;5007212;28;20255;-39
2022/05/26 00:11:40;;;;;;;1.10;1.00;;;16.30;51.70;;;16.51;45.35;98066.81;5006149;28;20398;-39
2022/05/26 00:14:10;;;;;;;1.80;1.10;;;16.30;51.90;;;16.54;45.20;98079.06;5007591;28;20052;-39
2022/05/26 00:16:43;;;;;;;0.80;0.80;;;16.30;52.00;;;16.49;45.13;98070.72;5008026;28;20054;-39
2022/05/26 00:19:15;;;;;;;4.63;1.50;;;16.30;52.00;;;16.51;45.36;98074.88;5008293;28;20072;-39
2022/05/26 00:21:43;;;;;;;1.05;0.95;;;16.30;52.10;;;16.51;45.30;98082.94;5008183;28;20050;-39
2022/05/26 00:24:11;;;;;;;1.73;1.30;;;16.20;52.20;;;16.51;45.41;98074.03;5007437;28;20062;-39
2022/05/26 00:26:38;;;;;;;1.30;1.13;;;16.30;52.10;;;16.53;45.13;98075.50;5007925;28;20054;-39
2022/05/26 00:29:06;;;;;;;1.30;1.00;;;16.30;52.20;;;16.49;45.56;98073.41;5006816;28;20044;-39
2022/05/26 00:31:34;;;;;;;2.25;1.20;;;16.20;52.20;;;16.49;45.29;98073.41;5007188;28;20050;-39
2022/05/26 00:34:02;;;;;;;3.47;1.67;;;16.20;52.20;;;16.51;45.21;98080.25;5008240;28;20054;-39
2022/05/26 00:36:43;;;;;;;0.90;0.77;;;16.30;52.30;;;16.50;45.58;98081.28;5007604;28;20042;-39
2022/05/26 00:39:18;;;;;;;2.47;1.08;;;16.30;52.20;;;16.48;45.62;98072.56;5005776;28;20089;-39
2022/05/26 00:41:57;;;;;;;1.13;1.05;;;16.30;52.50;;;16.52;45.58;98071.16;5007548;28;20224;-39
2022/05/26 00:44:25;;;;;;;1.80;1.02;;;16.30;52.50;;;16.53;45.43;98080.06;4969130;28;1121521;-39
2022/05/26 00:47:06;;;;;;;1.85;1.00;;;16.30;52.10;;;16.54;45.42;98081.75;5008454;28;20301;-39
2022/05/26 00:49:52;;;;;;;0.82;0.82;;;16.30;52.00;;;16.52;45.49;98076.53;5008177;28;20046;-39
2022/05/26 00:52:45;;;;;;;0.93;0.90;;;16.30;52.10;;;16.57;45.42;98080.53;5007978;28;20058;-39
2022/05/26 00:55:30;;;;;;;1.20;1.00;;;16.30;51.80;;;16.57;45.48;98078.66;5008078;28;20054;-39
2022/05/26 00:58:38;;;;;;;1.85;0.80;;;16.40;52.00;;;16.61;45.41;98069.19;5008809;28;20586;-39
2022/05/26 01:01:11;;;;;;;3.20;1.05;;;16.40;52.00;;;16.62;45.48;98075.41;5016828;28;20057;-39
2022/05/26 01:03:51;;;;;;;2.33;0.90;;;16.30;52.20;;;16.62;45.51;98072.72;5008019;28;20059;-39
2022/05/26 01:06:36;;;;;;;1.13;0.90;;;16.30;52.40;;;16.58;45.31;98074.97;5008411;28;20041;-39
2022/05/26 01:09:06;;;;;;;2.10;1.17;;;16.30;52.60;;;16.51;45.55;98072.19;5007384;28;20057;-40
2022/05/26 01:11:38;;;;;;;1.00;0.90;;;16.20;52.80;;;16.49;45.59;98081.47;5008589;28;20060;-39
2022/05/26 01:14:14;;;;;;;2.08;1.10;;;16.20;52.80;;;16.49;45.58;98076.91;5006961;28;20362;-39
2022/05/26 01:17:34;;;;;;;1.40;0.85;;;16.20;52.70;;;16.45;45.64;98070.25;5007994;28;20049;-39
2022/05/26 01:20:58;;;;;;;1.00;0.95;;;16.20;52.70;;;16.34;46.06;98065.34;4989100;28;20068;-39
2022/05/26 01:23:59;;;;;;;3.63;1.00;;;16.00;53.30;;;16.28;46.37;98058.88;5006607;28;20348;-39
2022/05/26 01:26:51;;;;;;;1.10;1.00;;;16.00;53.70;;;16.28;46.35;98068.78;5006893;28;20054;-39
2022/05/26 01:29:39;;;;;;;1.40;1.20;;;16.00;53.80;;;16.26;46.36;98065.47;5004619;28;20054;-39
2022/05/26 01:32:24;;;;;;;1.02;1.02;;;15.90;53.80;;;16.25;45.97;98056.59;5008455;28;20260;-39
2022/05/26 01:35:42;;;;;;;1.60;1.02;;;15.90;53.70;;;16.17;46.37;98059.38;5007131;28;20282;-39
2022/05/26 01:38:35;;;;;;;1.33;1.02;;;15.80;53.60;;;16.07;46.78;98054.28;5004644;28;20064;-39
2022/05/26 01:41:31;;;;;;;2.50;1.10;;;15.70;54.50;;;16.07;46.24;98054.28;5006557;28;20068;-39
2022/05/26 01:44:25;;;;;;;1.00;0.90;;;15.70;53.90;;;16.02;46.64;98055.88;5006697;28;20248;-40
2022/05/26 01:47:00;;;;;;;1.35;1.20;;;15.70;54.00;;;15.97;46.56;98058.25;5005731;28;20076;-39
2022/05/26 01:50:06;;;;;;;0.93;0.70;;;15.60;53.80;;;15.90;46.65;98067.06;5007338;28;20045;-39
2022/05/26 01:52:49;;;;;;;0.95;0.90;;;15.60;54.00;;;15.94;46.30;98064.84;5006537;28;20052;-39
2022/05/26 01:55:30;;;;;;;0.90;0.88;;;15.60;53.70;;;15.93;46.32;98058.63;5006457;28;20068;-39
2022/05/26 01:58:20;;;;;;;1.45;0.90;;;15.60;53.80;;;15.87;46.40;98064.75;5006471;28;20056;-39
2022/05/26 02:00:49;;;;;;;3.60;1.10;;;15.50;54.10;;;15.83;46.57;98063.44;5006091;28;20500;-39
2022/05/26 02:03:24;;;;;;;1.92;1.08;;;15.50;53.70;;;15.83;46.45;98059.94;5006080;28;20368;-39
2022/05/26 02:05:57;;;;;;;1.20;1.00;;;15.50;54.00;;;15.81;46.42;98054.75;5007582;28;20348;-39
2022/05/26 02:08:33;;;;;;;1.13;1.00;;;15.50;54.00;;;15.71;47.02;98060.34;5007551;28;20259;-39
2022/05/26 02:11:17;;;;;;;2.22;1.02;;;15.30;54.60;;;15.62;46.94;98064.13;5005871;28;20060;-39
2022/05/26 02:14:01;;;;;;;0.90;0.90;;;15.20;55.40;;;15.55;47.29;98076.63;5005565;28;20050;-39
2022/05/26 02:16:40;;;;;;;0.88;0.88;;;15.20;55.20;;;15.51;47.47;98069.97;5004994;28;20256;-39
2022/05/26 02:19:16;;;;;;;2.90;0.95;;;15.20;55.40;;;15.48;47.43;98071.13;5005625;28;20243;-39
2022/05/26 02:22:06;;;;;;;0.80;0.80;;;15.20;55.60;;;15.41;47.56;98077.41;5006570;28;20053;-39
2022/05/26 02:24:43;;;;;;;1.10;1.00;;;15.00;55.40;;;15.46;47.45;98072.34;5004537;28;20058;-39
2022/05/26 02:27:11;;;;;;;0.85;0.82;;;15.20;55.30;;;15.44;47.34;98069.00;5005506;28;20364;-39
2022/05/26 02:29:51;;;;;;;3.10;0.88;;;15.10;55.00;;;15.47;47.40;98068.63;5007049;28;20341;-39
2022/05/26 02:32:36;;;;;;;1.77;1.10;;;15.10;54.80;;;15.48;47.60;98073.00;5004983;28;20054;-39
2022/05/26 02:35:07;;;;;;;;;;;15.20;54.80;;;15.49;47.15;98070.13;5005814;28;20054;-39
2022/05/26 02:37:37;;;;;;;0.80;0.80;;;15.20;54.60;;;15.62;46.85;98063.31;5005834;28;20156;-40
2022/05/26 02:40:07;;;;;;;3.38;1.00;;;15.30;54.00;;;15.62;46.92;98074.03;5005303;28;20046;-39
2022/05/26 02:42:55;;;;;;;1.50;1.00;;;15.40;53.90;;;15.65;46.82;98069.13;5006787;28;20062;-39
2022/05/26 02:45:48;;;;;;;1.25;1.00;;;15.50;53.70;;;15.68;46.81;98065.25;5006510;28;20248;-39
2022/05/26 02:48:46;;;;;;;1.27;1.08;;;15.50;53.70;;;15.73;46.77;98066.41;5006141;28;20056;-39
2022/05/26 02:52:04;;;;;;;0.80;0.80;;;15.60;53.60;;;15.74;46.73;98062.72;5006136;28;20056;-39
2022/05/26 02:55:10;;;;;;;3.03;0.82;;;15.60;53.50;;;15.78;46.84;98073.06;5006765;28;20137;-39
2022/05/26 02:58:14;;;;;;;1.95;1.30;;;15.60;53.70;;;15.78;46.82;98070.38;5005949;28;20572;-39
2022/05/26 03:00:48;;;;;;;1.20;0.90;;;15.60;53.70;;;15.82;46.62;98063.63;5006092;28;20385;-39
2022/05/26 03:03:52;;;;;;;1.10;0.90;;;15.50;53.60;;;15.78;46.93;98067.69;5004758;28;20057;-39
2022/05/26 03:06:46;;;;;;;1.50;0.93;;;15.50;54.20;;;15.79;47.02;98067.50;5013398;28;20742;-39
2022/05/26 03:09:16;;;;;;;1.23;0.80;;;15.60;54.00;;;15.79;46.40;98056.78;5004841;28;20049;-39
2022/05/26 03:11:52;;;;;;;2.97;1.00;;;15.50;54.00;;;15.72;47.05;98063.84;5005271;28;20085;-39
2022/05/26 03:14:22;;;;;;;1.23;1.10;;;15.50;54.20;;;15.74;46.86;98073.44;5006649;28;20092;-39
2022/05/26 03:16:50;;;;;;;2.03;0.93;;;15.50;54.10;;;15.76;46.87;98070.59;5006292;28;20052;-39
2022/05/26 03:19:18;;;;;;;1.50;0.73;;;15.50;54.10;;;15.74;46.95;98070.75;5006095;28;20322;-39
2022/05/26 03:21:47;;;;;;;4.15;0.90;;;15.50;54.10;;;15.78;46.86;98070.38;5005442;28;20050;-39
2022/05/26 03:24:15;;;;;;;2.28;0.98;;;15.50;54.10;;;15.77;46.89;98077.59;5006490;28;20046;-39
2022/05/26 03:26:43;;;;;;;1.30;1.23;;;15.50;54.10;;;15.77;46.88;98080.28;5006826;28;20050;-39
2022/05/26 03:29:11;;;;;;;1.00;0.90;;;15.50;54.00;;;15.81;46.85;98081.59;5006173;28;20052;-39
2022/05/26 03:31:39;;;;;;;1.75;0.82;;;15.60;53.80;;;15.84;46.74;98083.06;5006678;28;20054;-39
2022/05/26 03:42:27;;;;;;;1.35;1.25;;;15.60;53.70;;;15.85;46.73;98092.78;5009218;28;20064;-39
2022/05/26 03:44:57;;;;;;;1.73;1.15;;;15.50;53.90;;;15.83;47.05;98090.28;5009907;28;20216;-39
2022/05/26 03:47:25;;;;;;;2.70;0.90;;;15.60;53.70;;;15.83;46.77;98089.47;5010012;28;20054;-39
2022/05/26 03:49:53;;;;;;;1.00;0.90;;;15.60;53.50;;;15.86;46.71;98098.00;5008250;28;20058;-39
2022/05/26 03:52:22;;;;;;;2.25;1.13;;;15.60;53.50;;;15.89;46.74;98091.41;5008129;28;20052;-39
2022/05/26 03:54:50;;;;;;;3.70;1.45;;;15.70;53.50;;;15.93;46.55;98096.22;5009269;28;20052;-39
2022/05/26 03:57:27;;;;;;;1.85;0.95;;;15.70;53.30;;;15.88;46.54;98097.81;5007819;28;20340;-39
2022/05/26 04:00:12;;;;;;;1.50;0.70;;;15.70;53.70;;;15.88;46.77;98100.50;5010204;28;20064;-39
2022/05/26 04:02:40;;;;;;;1.45;1.00;;;15.60;53.90;;;15.89;46.82;98104.84;5009248;28;20046;-39
2022/05/26 04:05:10;;;;;;;1.38;1.10;;;15.60;53.80;;;15.91;46.80;98109.00;5009846;28;20053;-39
2022/05/26 04:07:38;;;;;;;3.13;1.58;;;15.60;53.70;;;15.94;46.71;98111.31;5009178;28;20045;-39
2022/05/26 04:10:09;;;;;;;1.33;1.10;;;15.60;53.80;;;15.91;46.78;98108.16;5009223;28;20054;-39
2022/05/26 04:12:39;;;;;;;1.15;1.00;;;15.60;54.00;;;15.90;46.75;98109.19;5007960;28;20050;-39
2022/05/26 04:15:07;;;;;;;1.38;0.93;;;15.60;54.00;;;15.87;46.95;98110.38;5009284;28;20050;-39
2022/05/26 04:17:36;;;;;;;2.35;2.25;;;15.50;54.20;;;15.84;47.05;98121.50;5008765;28;20374;-39
2022/05/26 04:20:08;;;;;;;2.10;1.30;;;15.50;54.50;;;15.77;47.11;98122.41;5009152;28;20068;-39
2022/05/26 04:22:36;;;;;;;1.10;0.95;;;15.40;55.10;;;15.71;47.32;98127.44;5009492;28;20544;-39
2022/05/26 04:25:05;;;;;;;1.60;1.48;;;15.30;55.30;;;15.63;47.65;98134.75;5008486;28;20057;-39
2022/05/26 04:27:33;;;;;;;0.73;0.73;;;15.20;56.00;;;15.59;47.74;98126.22;5009084;28;20096;-39
2022/05/26 04:30:04;;;;;;;2.28;1.40;;;15.10;55.70;;;15.49;48.11;98131.00;5008442;28;20042;-39
2022/05/26 04:32:32;;;;;;;2.42;1.00;;;15.10;56.10;;;15.45;48.17;98140.44;5008747;28;20049;-39
2022/05/26 04:35:00;;;;;;;0.88;0.82;;;15.00;56.40;;;15.39;48.55;98136.59;5008429;28;20046;-39
2022/05/26 04:37:29;;;;;;;1.15;0.98;;;15.00;56.50;;;15.36;48.60;98140.50;5008101;28;20042;-40
2022/05/26 04:39:58;;;;;;;0.98;0.98;;;15.00;57.00;;;15.35;48.69;98144.22;5008137;28;20057;-39
2022/05/26 04:42:28;;;;;;;3.42;0.80;;;15.00;57.10;;;15.33;48.89;98142.69;5009235;28;20060;-39
2022/05/26 04:44:57;;;;;;;1.17;0.88;;;15.00;57.50;;;15.30;48.86;98143.91;5006387;28;20223;-39
2022/05/26 04:47:25;;;;;;;1.00;0.90;;;15.00;57.80;;;15.32;48.93;98149.09;5007974;28;20068;-39
2022/05/26 04:49:53;;;;;;;1.67;1.00;;;15.00;57.30;;;15.30;49.23;98153.81;5007537;28;20045;-39
2022/05/26 04:52:24;;;;;;;1.10;1.00;;;15.00;57.60;;;15.32;49.21;98149.09;5008365;28;20153;-39
2022/05/26 04:54:52;;;;;;;3.15;1.00;;;15.00;57.60;;;15.31;49.41;98150.91;5006002;28;20056;-39
2022/05/26 04:57:25;;;;;;;3.03;0.98;;;15.00;58.50;;;15.35;49.28;98157.63;5007573;28;20343;-39
2022/05/26 04:59:54;;;;;;;1.00;0.90;;;15.10;58.30;;;15.36;49.59;98156.59;5008028;28;20522;-39
2022/05/26 05:02:23;;;;;;;1.33;1.23;;;15.10;58.70;;;15.38;49.69;98152.91;5007402;28;20053;-40
2022/05/26 05:04:51;;;;;;;1.27;1.00;;;15.10;58.10;;;15.39;49.63;98158.06;5008296;28;20062;-39
2022/05/26 05:07:19;;;;;;;2.63;0.90;;;15.10;58.00;;;15.38;49.99;98155.59;5007761;28;20527;-40
2022/05/26 05:09:47;;;;;;;2.00;1.20;;;15.10;58.90;;;15.40;49.92;98162.44;5008745;28;20041;-39
2022/05/26 05:12:20;;;;;;;1.40;1.00;;;15.10;59.00;;;15.44;50.17;98158.38;5006773;28;20042;-39
2022/05/26 05:14:53;;;;;;;1.45;0.80;;;15.20;59.00;;;15.44;50.42;98161.06;5006440;28;20283;-39
2022/05/26 05:17:23;;;;;;;1.15;1.00;;;15.20;59.70;;;15.49;50.09;98166.72;5007990;28;20060;-40
2022/05/26 05:19:52;;;;;;;1.40;0.90;;;15.20;58.50;;;15.54;50.04;98158.97;5006650;28;20065;-40
2022/05/26 05:22:49;;;;;;;1.15;0.80;;;15.30;58.40;;;15.58;50.05;98163.97;5008161;28;20247;-41
2022/05/26 05:25:26;;;;;;;1.98;1.50;;;15.50;58.00;;;15.65;49.92;98176.50;5007574;28;20428;-40
2022/05/26 05:28:09;;;;;;;2.40;1.13;;;15.50;57.70;;;15.67;49.83;98179.00;5007361;28;20053;-40
2022/05/26 05:30:56;;;;;;;1.23;1.13;;;15.60;57.40;;;15.82;49.71;98179.06;5006994;28;20050;-40
2022/05/26 05:33:39;;;;;;;2.15;1.20;;;15.80;57.00;;;15.90;49.41;98187.06;5006389;28;20381;-40
2022/05/26 05:36:14;;;;;;;1.45;1.10;;;15.90;56.50;;;15.97;49.22;98184.47;5008750;28;20050;-40
2022/05/26 05:38:43;;;;;;;1.58;1.02;;;15.90;56.30;;;16.00;49.22;98189.47;5008394;28;20050;-40
2022/05/26 05:41:11;;;;;;;2.15;1.20;;;15.90;56.40;;;16.03;49.09;98189.97;5007266;28;20060;-40
2022/05/26 05:43:40;;;;;;;1.00;1.00;;;16.00;56.20;;;16.08;48.98;98194.78;5007306;28;20065;-40
2022/05/26 05:46:08;;;;;;;2.38;1.33;;;16.00;56.10;;;16.09;49.16;98197.28;5007673;28;20108;-40
2022/05/26 05:48:36;;;;;;;1.58;1.10;;;16.10;56.40;;;16.20;48.83;98192.47;5007695;28;20041;-40
2022/05/26 05:51:04;;;;;;;2.25;1.20;;;16.10;56.20;;;16.24;48.93;98199.13;5006888;28;20053;-40
2022/05/26 05:53:32;;;;;;;1.02;0.90;;;16.20;56.00;;;16.28;48.75;98203.13;5005110;28;20057;-40
2022/05/26 05:56:00;;;;;;;2.47;2.00;;;16.20;55.80;;;16.26;48.75;98203.28;5007116;28;20046;-40
2022/05/26 05:58:28;;;;;;;1.90;1.10;;;16.20;55.50;;;16.32;48.63;98202.59;5006376;28;20061;-39
2022/05/26 06:00:55;;;;;;;2.33;1.20;;;16.20;55.60;;;16.28;48.71;98203.94;5007263;28;20061;-40
2022/05/26 06:03:23;;;;;;;3.15;1.38;;;16.20;55.80;;;16.35;48.49;98212.13;5006131;28;20156;-39
2022/05/26 06:05:51;;;;;;;1.17;0.90;;;16.30;55.80;;;16.42;48.78;98206.84;5006682;28;20060;-40
2022/05/26 06:08:25;;;;;;;1.42;1.00;;;16.40;55.70;;;16.51;48.53;98208.41;5007200;28;20094;-40
2022/05/26 06:10:53;;;;;;;2.25;1.15;;;16.50;55.50;;;16.50;48.39;98212.13;5006037;28;20249;-40
2022/05/26 06:13:21;;;;;;;1.17;1.05;;;16.40;55.40;;;16.58;48.52;98219.28;5006311;28;20064;-40
2022/05/26 06:15:53;;;;;;;1.27;0.88;;;16.50;55.50;;;16.66;48.28;98216.50;5007502;28;20076;-40
2022/05/26 06:18:21;;;;;;;1.92;1.02;;;16.70;55.20;;;16.71;47.92;98227.50;5006174;28;20382;-40
2022/05/26 06:20:49;;;;;;;2.33;1.00;;;16.70;55.20;;;16.74;48.36;98224.44;5006800;28;20060;-40
2022/05/26 06:23:18;;;;;;;1.02;0.93;;;16.70;55.40;;;16.81;48.15;98222.69;5006801;28;20646;-40
2022/05/26 06:25:47;;;;;;;1.65;1.10;;;16.80;54.90;;;16.85;48.16;98229.38;5006371;28;20413;-40
2022/05/26 06:31:01;;;;;;;2.25;1.02;;;16.80;54.90;;;16.88;48.02;98228.16;5006416;28;20676;-40
2022/05/26 06:39:03;;;;;;;2.60;1.25;;;16.80;54.90;;;16.97;48.02;98228.91;5007095;28;20054;-40
2022/05/26 06:44:19;;;;;;;2.55;1.10;;;17.00;54.30;;;17.04;47.67;98232.50;5006001;28;20056;-40
2022/05/26 06:46:47;;;;;;;1.40;1.00;;;17.00;54.30;;;17.06;47.65;98235.84;5006440;28;20046;-40
2022/05/26 06:49:15;;;;;;;3.13;1.20;;;17.00;54.20;;;17.08;47.39;98240.03;5004522;28;20076;-40
2022/05/26 06:51:44;;;;;;;1.73;1.15;;;17.00;53.70;;;17.07;47.34;98238.34;5006218;28;20058;-40
2022/05/26 06:54:12;;;;;;;1.40;1.20;;;17.00;53.70;;;17.02;47.44;98248.00;5007262;28;20069;-40
2022/05/26 06:56:40;;;;;;;1.30;0.85;;;16.90;53.80;;;17.06;47.15;98249.28;5004833;28;20366;-40
2022/05/26 06:59:08;;;;;;;2.78;1.25;;;17.00;53.40;;;17.01;47.08;98243.66;5004729;28;20060;-40
2022/05/26 07:01:36;;;;;;;2.67;1.00;;;16.90;53.70;;;17.00;46.89;98250.91;5005303;28;20080;-40
2022/05/26 07:04:04;;;;;;;1.20;1.10;;;16.90;53.30;;;17.14;47.20;98254.59;5005747;28;20081;-40
2022/05/26 07:06:32;;;;;;;3.97;1.40;;;17.10;53.50;;;17.27;47.14;98260.13;5005564;28;20068;-40
2022/05/26 07:09:00;;;;;;;1.70;1.00;;;17.40;53.50;;;17.40;47.23;98261.28;5005282;28;20060;-40
2022/05/26 07:11:28;;;;;;;2.83;1.40;;;17.50;53.20;;;17.50;47.04;98261.81;5006509;28;20045;-40
2022/05/26 07:13:57;;;;;;;1.77;1.10;;;17.60;52.40;;;17.53;46.58;98264.13;5008937;28;20050;-40
2022/05/26 07:16:25;;;;;;;4.93;1.30;;;17.70;52.50;;;17.58;46.34;98269.75;5008205;28;20067;-40
2022/05/26 07:18:55;;;;;;;1.20;1.10;;;17.70;52.10;;;17.68;46.19;98270.31;5010314;28;20056;-40
2022/05/26 07:21:23;;;;;;;2.33;1.20;;;17.90;51.70;;;17.62;45.67;98264.84;5008635;28;20354;-39
2022/05/26 07:23:51;;;;;;;1.08;1.08;;;17.70;50.90;;;17.62;46.05;98273.75;5009081;28;20112;-40
2022/05/26 07:26:19;;;;;;;1.38;1.00;;;17.70;51.70;;;17.67;46.30;98279.38;5014680;28;20064;-40
2022/05/26 07:28:51;;;;;;;1.77;1.25;;;17.70;52.00;;;17.74;46.44;98278.63;5018421;28;20213;-40
2022/05/26 07:31:19;;;;;;;1.75;1.15;;;17.80;52.20;;;17.74;46.01;98276.78;5026366;28;20476;-40
2022/05/26 07:33:49;;;;;;;1.20;1.00;;;17.80;51.70;;;17.68;46.08;98275.69;5028307;28;20067;-40
2022/05/26 07:42:06;;;;;;;4.78;1.30;;;17.70;52.30;;;17.66;46.31;98288.50;5029291;28;20061;-40
2022/05/26 07:44:38;;;;;;;4.45;1.50;;;17.60;52.40;;;17.49;46.25;98287.91;5028008;28;20045;-40
2022/05/26 07:47:08;;;;;;;3.00;1.40;;;17.60;52.00;;;17.42;46.33;98296.91;5028590;28;20049;-40
2022/05/26 07:49:39;;;;;;;4.22;1.52;;;17.50;52.10;;;17.58;46.28;98293.16;5028698;28;20057;-39
2022/05/26 07:52:09;;;;;;;0.95;0.95;;;17.60;52.40;;;17.50;46.60;98291.41;5028078;28;20037;-40
2022/05/26 07:54:38;;;;;;;3.05;1.33;;;17.50;52.50;;;17.39;46.85;98299.97;5009502;28;20062;-40
2022/05/26 07:57:10;;;;;;;3.17;1.48;;;17.40;53.10;;;17.62;46.38;98297.13;5008130;28;20364;-40
2022/05/26 07:59:38;;;;;;;1.20;0.93;;;17.60;52.70;;;17.70;46.59;98295.19;5014758;28;20041;-40
2022/05/26 08:02:06;;;;;;;1.60;1.00;;;17.70;52.50;;;17.80;46.21;98294.03;5036513;28;20053;-40
2022/05/26 08:04:34;;;;;;;3.05;1.25;;;17.90;52.40;;;17.87;46.10;98303.03;5038345;28;20055;-40
2022/05/26 08:07:02;;;;;;;2.47;1.10;;;17.90;52.00;;;17.77;46.39;98302.50;5034093;28;20064;-40
2022/05/26 08:09:30;;;;;;;3.83;1.95;;;17.70;52.50;;;17.71;46.34;98306.78;5037298;28;20069;-39
2022/05/26 08:11:58;;;;;;;2.28;1.30;;;17.70;52.40;;;17.65;46.23;98302.97;5035974;28;20247;-40
2022/05/26 08:14:26;;;;;;;3.20;1.17;;;17.60;52.70;;;17.57;46.53;98311.19;5037494;28;20053;-40
2022/05/26 08:16:53;;;;;;;1.23;1.10;;;17.50;52.90;;;17.48;47.26;98315.00;5035693;28;20052;-40
2022/05/26 08:19:21;;;;;;;1.20;1.10;;;17.40;53.60;;;17.35;47.06;98314.84;5035295;28;20387;-40
2022/05/26 08:21:49;;;;;;;1.13;1.00;;;17.30;53.30;;;17.44;46.88;98311.84;5046815;28;20693;-40
2022/05/26 08:24:19;;;;;;;4.18;1.27;;;17.40;53.20;;;17.46;46.93;98317.03;5048215;28;20059;-40
2022/05/26 08:26:47;;;;;;;1.45;1.30;;;17.50;53.40;;;17.49;47.19;98306.75;5047186;28;20045;-40
2022/05/26 08:29:16;;;;;;;1.63;1.02;;;17.50;53.60;;;17.55;47.28;98315.09;5047194;28;20067;-40
2022/05/26 08:31:44;;;;;;;1.20;1.08;;;17.60;53.70;;;17.67;46.84;98309.00;5047837;28;20078;-40
2022/05/26 08:34:12;;;;;;;3.53;2.08;;;17.70;52.90;;;17.52;46.24;98317.16;5048540;28;20355;-40
2022/05/26 08:36:40;;;;;;;1.55;1.20;;;17.70;51.90;;;17.58;46.41;98322.78;5048437;28;20041;-39
2022/05/26 08:39:09;;;;;;;4.05;1.50;;;17.60;52.70;;;17.74;46.80;98319.88;5046596;28;20041;-40
2022/05/26 08:41:42;;;;;;;1.88;1.30;;;17.80;52.80;;;17.72;46.96;98327.31;5047526;28;20358;-41
2022/05/26 08:44:36;;;;;;;2.90;1.40;;;17.90;52.60;;;17.68;47.14;98329.53;5045868;28;20262;-40
2022/05/26 08:47:08;;;;;;;;;;;17.80;53.10;;;17.57;47.01;98330.03;5048031;28;20057;-39
2022/05/26 08:49:43;;;;;;;1.55;1.27;;;17.80;53.00;;;17.73;47.16;98328.13;5045893;28;19947;-39
2022/05/26 08:52:10;;;;;;;1.17;1.08;;;17.80;53.30;;;17.93;47.00;98329.19;5046254;28;20052;-39
2022/05/26 08:55:06;;;;;;;1.67;1.20;;;18.10;53.10;;;17.83;46.59;98339.41;5047972;28;20369;-40
2022/05/26 08:58:11;;;;;;;1.23;1.10;;;18.10;52.50;;;17.70;47.10;98338.25;5046239;28;20045;-40
2022/05/26 09:00:40;;;;;;;;;;;17.90;52.80;;;17.79;47.23;98335.44;5046146;28;20053;-39
2022/05/26 09:03:28;;;;;;;2.40;1.50;;;17.90;53.70;;;17.76;47.10;98333.97;5045357;28;19924;-39
2022/05/26 09:06:08;;;;;;;1.20;1.10;;;17.90;53.10;;;17.85;47.04;98337.41;5047447;28;20057;-39
2022/05/26 09:14:32;;;;;;;1.70;1.60;;;18.20;53.00;;;18.15;46.46;98334.59;5047500;28;20435;-39
2022/05/26 09:17:05;;;;;;;2.13;1.30;;;18.50;51.70;;;18.22;45.99;98347.13;5046251;28;20229;-39
2022/05/26 09:19:45;;;;;;;0.98;0.98;;;18.40;51.50;;;18.40;46.26;98340.44;5047525;28;20044;-39
2022/05/26 09:22:44;;;;;;;3.25;2.03;;;18.60;51.60;;;18.54;45.85;98335.97;5047426;28;20057;-39
2022/05/26 09:25:34;;;;;;;1.45;1.35;;;18.80;51.00;;;18.58;45.91;98350.72;5045698;28;20195;-39
2022/05/26 09:28:02;;;;;;;1.38;1.13;;;18.80;51.30;;;18.28;45.67;98343.66;5047043;28;20056;-39
2022/05/26 09:30:33;;;;;;;2.30;1.13;;;18.40;51.30;;;18.32;45.62;98337.84;5045693;28;20056;-39
2022/05/26 09:33:15;;;;;;;3.92;1.25;;;18.40;51.50;;;18.24;45.82;98346.91;5046590;28;20115;-39
2022/05/26 09:35:43;;;;;;;2.35;1.17;;;18.30;51.80;;;18.21;45.99;98348.13;5047946;28;20057;-39
2022/05/26 09:38:18;;;;;;;5.53;1.38;;;18.30;51.90;;;18.07;45.87;98349.03;5047092;28;20144;-40
2022/05/26 09:40:48;;;;;;;2.55;1.45;;;18.30;51.20;;;18.27;46.02;98347.34;5046737;28;20051;-39
2022/05/26 09:43:16;;;;;;;2.33;1.20;;;18.30;51.90;;;18.14;46.47;98352.63;5047291;28;20055;-39
2022/05/26 09:45:51;;;;;;;3.53;2.13;;;18.30;52.50;;;18.07;46.90;98354.44;5047910;28;20057;-39
2022/05/26 09:48:37;;;;;;;2.33;1.25;;;18.30;52.70;;;18.20;46.42;98364.47;5045900;28;20060;-39
2022/05/26 09:51:33;;;;;;;4.68;1.48;;;18.40;52.00;;;18.43;46.07;98366.97;5046155;28;20041;-39
2022/05/26 09:54:30;;;;;;;3.22;1.27;;;18.60;51.40;;;18.61;45.72;98358.41;5028273;28;20263;-38
2022/05/26 09:57:28;;;;;;;1.20;1.10;;;18.90;50.90;;;18.58;46.03;98354.25;5025123;28;20061;-39
2022/05/26 09:59:56;;;;;;;1.35;1.25;;;18.90;51.20;;;18.67;46.46;98363.88;5025214;28;20084;-38
2022/05/26 10:02:40;;;;;;;2.17;1.38;;;18.90;52.30;;;18.79;46.30;98360.66;5026964;28;20228;-39
2022/05/26 10:05:21;;;;;;;4.30;1.55;;;19.00;51.90;;;18.92;45.60;98358.06;5025838;28;20057;-39
2022/05/26 10:08:04;;;;;;;1.88;1.27;;;19.20;50.90;;;18.81;46.60;98366.72;5025338;28;20064;-38
2022/05/26 10:10:53;;;;;;;1.83;1.30;;;19.10;52.10;;;18.63;45.75;98373.38;5026912;28;20069;-38
2022/05/26 10:13:27;;;;;;;1.25;1.15;;;19.00;50.90;;;18.98;45.50;98365.38;5025048;28;20268;-39
2022/05/26 10:16:15;;;;;;;2.15;1.30;;;19.10;51.20;;;19.06;45.38;98369.78;5025845;28;20533;-38
2022/05/26 10:19:01;;;;;;;1.70;1.30;;;19.20;50.90;;;19.02;45.61;98365.81;5025411;28;20049;-38
2022/05/26 10:22:08;;;;;;;3.13;1.27;;;19.20;51.40;;;19.00;45.81;98373.25;5023633;28;20348;-38
2022/05/26 10:24:57;;;;;;;1.77;1.30;;;19.20;51.80;;;18.66;46.44;98372.16;5026306;28;20239;-39
2022/05/26 10:28:02;;;;;;;2.35;2.05;;;18.80;52.50;;;18.61;46.45;98364.66;5025432;28;20335;-39
2022/05/26 10:30:51;;;;;;;3.40;1.73;;;18.60;52.40;;;18.94;45.89;98361.41;5026131;28;20053;-39
2022/05/26 10:33:45;;;;;;;3.83;2.00;;;19.00;51.80;;;18.97;45.90;98358.31;5024988;28;20362;-39
2022/05/26 10:36:36;;;;;;;3.67;1.63;;;19.10;51.20;;;18.83;46.45;98370.88;5025662;28;20469;-39
2022/05/26 10:39:46;;;;;;;10.15;4.63;;;18.90;52.70;;;18.82;46.45;98371.88;5024401;28;20057;-39
2022/05/26 10:42:35;;;;;;;2.55;1.52;;;18.90;52.60;;;18.41;46.52;98379.81;5023833;28;20351;-39
2022/05/26 10:45:25;;;;;;;2.42;1.70;;;18.60;52.30;;;18.92;46.25;98360.78;5015727;28;20049;-38
2022/05/26 10:48:20;;;;;;;1.55;1.35;;;19.00;52.20;;;18.92;46.97;98373.41;5009076;28;20696;-40
2022/05/26 10:50:53;;;;;;;1.92;1.70;;;19.30;52.60;;;19.10;46.16;98375.63;5007856;28;20084;-37
2022/05/26 10:53:40;;;;;;;1.50;1.40;;;19.30;51.90;;;19.20;46.23;98378.78;5009911;28;20582;-38
2022/05/26 10:56:53;;;;;;;1.80;1.38;;;19.40;52.20;;;19.17;45.96;98376.47;5009607;28;20049;-38
2022/05/26 10:59:40;;;;;;;2.80;1.90;;;19.40;52.20;;;18.86;46.68;98375.03;5009989;28;20046;-39
2022/05/26 11:02:32;;;;;;;1.55;1.42;;;19.00;52.60;;;18.85;46.89;98371.50;5009407;28;20072;-38
2022/05/26 11:05:17;;;;;;;2.25;1.65;;;18.90;53.40;;;19.11;46.30;98375.41;5008542;28;20049;-38
2022/05/26 11:07:55;;;;;;;3.50;1.90;;;19.20;52.70;;;18.96;46.17;98380.94;5008973;28;20054;-38
2022/05/26 11:10:39;;;;;;;2.35;1.58;;;19.00;52.00;;;18.99;46.13;98383.22;5013868;28;20258;-38
2022/05/26 11:17:21;;;;;;;4.50;1.52;;;19.00;52.10;;;19.03;46.32;98375.56;5038787;28;20037;-38
2022/05/26 11:17:24;;;;;;;4.25;1.88;;;19.20;52.20;;;18.81;47.46;98375.63;5007600;28;20224;-38
2022/05/26 11:20:21;;;;;;;2.28;1.42;;;18.90;54.20;;;18.78;47.73;98373.28;5033416;28;20053;-38
2022/05/26 11:22:51;;;;;;;5.50;1.88;;;18.90;54.20;;;18.91;47.31;98371.75;5049357;28;20079;-38
2022/05/26 11:25:32;;;;;;;2.95;1.58;;;19.00;53.70;;;18.79;47.50;98371.44;5049099;28;20060;-39
2022/05/26 11:28:14;;;;;;;2.65;2.00;;;19.00;53.50;;;18.93;47.20;98375.09;5037007;28;20065;-38
2022/05/26 11:37:36;;;;;;;3.30;1.60;;;19.00;54.70;;;18.66;48.44;98380.25;5019713;28;20049;-38
2022/05/26 11:40:13;;;;;;;3.47;1.80;;;18.70;55.70;;;18.57;48.90;98384.09;5017219;28;20054;-38